createdAt,value
2022-08-05T00:02:17.113Z,3.00
2022-08-05T00:06:02.612Z,3.20
2022-08-05T00:08:35.475Z,3.30
2022-08-05T00:11:35.029Z,3.90
2022-08-05T00:14:38.367Z,3.30
2022-08-05T00:17:46.535Z,3.50
2022-08-05T00:20:52.085Z,3.40
2022-08-05T00:24:10.575Z,6.10
2022-08-05T00:27:10.459Z,4.00
2022-08-05T00:30:11.344Z,4.00
2022-08-05T00:34:55.586Z,5.00
2022-08-05T00:37:13.194Z,4.60
2022-08-05T00:39:36.933Z,4.90
2022-08-05T00:42:36.688Z,4.80
2022-08-05T00:45:46.027Z,4.30
2022-08-05T00:48:55.397Z,4.60
2022-08-05T00:52:04.988Z,4.30
2022-08-05T00:55:13.420Z,4.70
2022-08-05T00:58:27.238Z,4.70
2022-08-05T01:01:42.073Z,4.40
2022-08-05T01:04:30.205Z,4.50
2022-08-05T01:07:37.773Z,5.20
2022-08-05T01:10:51.512Z,6.10
2022-08-05T01:13:59.119Z,4.60
2022-08-05T01:16:53.836Z,4.70
2022-08-05T01:20:03.594Z,5.10
2022-08-05T01:23:15.045Z,4.60
2022-08-05T01:26:12.122Z,5.00
2022-08-05T01:29:22.931Z,5.30
2022-08-05T01:32:20.361Z,6.10
2022-08-05T01:35:52.148Z,5.20
2022-08-05T01:38:33.733Z,5.30
2022-08-05T01:41:44.440Z,6.50
2022-08-05T01:44:54.193Z,5.90
2022-08-05T01:48:02.397Z,5.90
2022-08-05T01:51:12.365Z,6.30
2022-08-05T01:54:25.566Z,6.10
2022-08-05T01:58:29.202Z,6.50
2022-08-05T02:00:30.989Z,6.60
2022-08-05T02:03:38.529Z,6.20
2022-08-05T02:06:48.013Z,6.50
2022-08-05T02:09:56.254Z,6.00
2022-08-05T02:13:04.882Z,6.10
2022-08-05T02:16:10.455Z,5.80
2022-08-05T02:19:13.697Z,6.40
2022-08-05T02:22:26.812Z,6.30
2022-08-05T02:25:23.958Z,5.60
2022-08-05T02:28:38.162Z,6.00
2022-08-05T02:31:35.438Z,6.10
2022-08-05T02:34:42.881Z,6.20
2022-08-05T02:37:53.919Z,6.10
2022-08-05T02:40:51.043Z,6.60
2022-08-05T02:44:02.711Z,6.60
2022-08-05T02:47:03.306Z,6.10
2022-08-05T02:50:11.791Z,6.60
2022-08-05T02:53:19.856Z,6.70
2022-08-05T02:56:27.848Z,7.10
2022-08-05T02:59:27.732Z,6.50
2022-08-05T03:02:35.718Z,6.50
2022-08-05T03:06:57.014Z,7.10
2022-08-05T03:08:48.302Z,6.80
2022-08-05T03:11:54.521Z,7.40
2022-08-05T03:14:54.094Z,6.70
2022-08-05T03:18:04.426Z,7.30
2022-08-05T03:21:04.767Z,7.10
2022-08-05T03:24:14.789Z,6.60
2022-08-05T03:27:23.212Z,6.80
2022-08-05T03:30:30.320Z,7.60
2022-08-05T03:33:42.328Z,7.70
2022-08-05T03:36:36.162Z,8.40
2022-08-05T03:39:47.390Z,7.80
2022-08-05T03:42:51.752Z,7.90
2022-08-05T03:46:00.120Z,8.10
2022-08-05T03:49:08.119Z,8.60
2022-08-05T03:52:38.382Z,9.50
2022-08-05T03:56:05.517Z,8.00
2022-08-05T03:58:28.900Z,8.20
2022-08-05T04:01:36.628Z,8.40
2022-08-05T04:04:44.878Z,8.80
2022-08-05T04:07:58.501Z,8.20
2022-08-05T04:10:55.821Z,8.40
2022-08-05T04:14:04.004Z,8.80
2022-08-05T04:17:11.705Z,9.00
2022-08-05T04:20:19.907Z,9.10
2022-08-05T04:23:58.432Z,9.50
2022-08-05T04:26:33.495Z,9.40
2022-08-05T04:29:41.461Z,8.70
2022-08-05T04:32:49.375Z,9.20
2022-08-05T04:36:15.864Z,9.10
2022-08-05T04:39:02.923Z,8.90
2022-08-05T04:42:11.287Z,9.70
2022-08-05T04:45:23.075Z,10.80
2022-08-05T04:48:28.073Z,9.40
2022-08-05T04:51:25.786Z,9.00
2022-08-05T04:54:27.584Z,8.90
2022-08-05T04:57:37.135Z,9.40
2022-08-05T05:00:45.625Z,9.50
2022-08-05T05:03:47.988Z,10.20
2022-08-05T05:06:57.598Z,10.40
2022-08-05T05:10:06.349Z,11.70
2022-08-05T05:13:14.282Z,8.50
2022-08-05T05:16:22.006Z,8.10
2022-08-05T05:19:26.771Z,8.90
2022-08-05T05:22:31.965Z,9.00
2022-08-05T05:25:41.051Z,9.00
2022-08-05T05:28:49.018Z,8.90
2022-08-05T05:31:56.964Z,9.10
2022-08-05T05:35:04.480Z,9.60
2022-08-05T05:38:14.450Z,9.30
2022-08-05T05:41:22.421Z,8.40
2022-08-05T05:44:36.699Z,9.00
2022-08-05T05:48:06.535Z,8.20
2022-08-05T05:50:41.124Z,8.10
2022-08-05T05:53:45.906Z,8.50
2022-08-05T05:56:47.303Z,8.10
2022-08-05T05:59:55.717Z,8.30
2022-08-05T06:03:40.691Z,8.10
2022-08-05T06:06:09.927Z,9.00
2022-08-05T06:09:24.818Z,8.50
2022-08-05T06:12:22.999Z,9.00
2022-08-05T06:15:25.502Z,8.30
2022-08-05T06:18:31.768Z,8.70
2022-08-05T06:21:36.078Z,8.30
2022-08-05T06:24:34.792Z,8.40
2022-08-05T06:28:12.093Z,8.20
2022-08-05T06:30:47.829Z,8.00
2022-08-05T06:34:05.986Z,8.20
2022-08-05T06:37:01.850Z,8.00
2022-08-05T06:40:10.072Z,8.40
2022-08-05T06:43:59.826Z,8.50
2022-08-05T06:46:23.353Z,7.30
2022-08-05T06:49:59.877Z,8.40
2022-08-05T06:52:38.106Z,9.10
2022-08-05T06:55:37.438Z,9.40
2022-08-05T06:58:46.814Z,10.60
2022-08-05T07:01:54.882Z,10.00
2022-08-05T07:05:03.205Z,9.70
2022-08-05T07:08:10.955Z,10.00
2022-08-05T07:11:22.408Z,10.80
2022-08-05T07:14:29.505Z,10.20
2022-08-05T07:17:59.332Z,11.60
2022-08-05T07:20:37.010Z,10.10
2022-08-05T07:23:36.044Z,10.20
2022-08-05T07:26:37.665Z,9.90
2022-08-05T07:30:23.911Z,10.10
2022-08-05T07:32:51.033Z,9.40
2022-08-05T07:36:02.809Z,10.20
2022-08-05T07:38:56.901Z,10.90
2022-08-05T07:42:13.932Z,10.20
2022-08-05T07:45:10.364Z,10.40
2022-08-05T07:49:01.615Z,9.10
2022-08-05T07:51:36.209Z,10.40
2022-08-05T07:54:30.749Z,10.40
2022-08-05T07:57:52.294Z,10.20
2022-08-05T08:00:36.379Z,10.80
2022-08-05T08:03:45.074Z,9.70
2022-08-05T08:06:52.826Z,10.30
2022-08-05T08:10:01.016Z,9.90
2022-08-05T08:13:09.396Z,10.60
2022-08-05T08:16:34.906Z,10.60
2022-08-05T08:20:21.051Z,8.90
2022-08-05T08:22:30.998Z,9.60
2022-08-05T08:25:59.809Z,8.40
2022-08-05T08:29:02.053Z,8.60
2022-08-05T08:31:51.304Z,7.10
2022-08-05T08:34:58.877Z,7.20
2022-08-05T08:38:07.575Z,6.90
2022-08-05T08:41:16.128Z,6.90
2022-08-05T08:45:19.144Z,6.30
2022-08-05T08:48:06.233Z,7.10
2022-08-05T08:51:03.722Z,6.70
2022-08-05T08:53:45.002Z,7.50
2022-08-05T08:56:53.855Z,6.40
2022-08-05T08:59:53.674Z,6.30
2022-08-05T09:03:04.166Z,6.40
2022-08-05T09:06:16.987Z,6.40
2022-08-05T09:09:16.508Z,6.20
2022-08-05T09:12:30.142Z,6.10
2022-08-05T09:15:27.390Z,5.70
2022-08-05T09:18:27.641Z,6.10
2022-08-05T09:22:21.973Z,5.50
2022-08-05T09:24:42.533Z,5.30
2022-08-05T09:28:03.800Z,4.40
2022-08-05T09:30:56.093Z,5.60
2022-08-05T09:34:03.949Z,6.80
2022-08-05T09:37:15.287Z,5.80
2022-08-05T09:40:13.565Z,6.10
2022-08-05T09:43:21.510Z,5.80
2022-08-05T09:46:30.129Z,7.90
2022-08-05T09:49:40.416Z,8.20
2022-08-05T09:52:45.233Z,8.50
2022-08-05T09:55:56.749Z,9.60
2022-08-05T09:58:56.737Z,8.70
2022-08-05T10:02:04.727Z,9.00
2022-08-05T10:05:13.231Z,9.20
2022-08-05T10:08:37.784Z,9.40
2022-08-05T10:11:29.647Z,8.20
2022-08-05T10:14:32.252Z,7.60
2022-08-05T10:17:42.403Z,6.90
2022-08-05T10:20:41.846Z,6.70
2022-08-05T10:23:59.772Z,6.20
2022-08-05T10:26:55.444Z,7.40
2022-08-05T10:30:41.423Z,6.20
2022-08-05T10:33:03.020Z,6.50
2022-08-05T10:36:11.589Z,6.60
2022-08-05T10:39:24.349Z,7.70
2022-08-05T10:42:32.393Z,6.60
2022-08-05T10:45:42.198Z,7.00
2022-08-05T10:48:39.528Z,6.60
2022-08-05T10:51:48.539Z,6.50
2022-08-05T10:54:46.906Z,6.00
2022-08-05T10:57:51.273Z,6.50
2022-08-05T11:00:55.086Z,6.50
2022-08-05T11:03:56.001Z,6.20
2022-08-05T11:07:04.322Z,6.10
2022-08-05T11:10:12.353Z,6.10
2022-08-05T11:13:20.464Z,6.40
2022-08-05T11:16:33.625Z,6.30
2022-08-05T11:20:09.878Z,5.90
2022-08-05T11:22:36.626Z,6.30
2022-08-05T11:26:06.221Z,5.80
2022-08-05T11:28:49.945Z,5.30
2022-08-05T11:32:00.674Z,5.80
2022-08-05T11:35:09.134Z,5.40
2022-08-05T11:38:30.134Z,4.70
2022-08-05T11:41:56.506Z,5.30
2022-08-05T11:44:40.298Z,5.30
2022-08-05T11:47:49.882Z,5.50
2022-08-05T11:50:34.177Z,5.00
2022-08-05T11:53:42.231Z,4.80
2022-08-05T11:56:52.095Z,5.80
2022-08-05T12:00:00.189Z,8.20
2022-08-05T12:03:08.270Z,7.30
2022-08-05T12:06:16.152Z,6.60
2022-08-05T12:09:24.726Z,6.10
2022-08-05T12:12:30.176Z,5.10
2022-08-05T12:15:40.336Z,4.30
2022-08-05T12:18:53.090Z,3.00
2022-08-05T12:21:50.200Z,2.90
2022-08-05T12:24:58.786Z,2.80
2022-08-05T12:28:06.949Z,1.90
2022-08-05T12:31:23.744Z,2.10
2022-08-05T12:34:23.486Z,2.20
2022-08-05T12:37:21.759Z,1.70
2022-08-05T12:40:30.434Z,1.20
2022-08-05T12:43:38.905Z,1.30
2022-08-05T12:46:47.096Z,1.10
2022-08-05T12:50:04.782Z,0.90
2022-08-05T12:52:54.296Z,0.90
2022-08-05T12:55:55.210Z,1.00
2022-08-05T12:59:06.827Z,1.00
2022-08-05T13:02:09.890Z,1.10
2022-08-05T13:05:17.984Z,1.00
2022-08-05T13:08:28.271Z,0.80
2022-08-05T13:12:02.751Z,1.00
2022-08-05T13:14:41.153Z,1.00
2022-08-05T13:17:50.587Z,1.00
2022-08-05T13:20:59.206Z,0.80
2022-08-05T13:24:08.775Z,1.10
2022-08-05T13:27:23.091Z,1.00
2022-08-05T13:30:34.757Z,1.30
2022-08-05T13:34:22.727Z,1.20
2022-08-05T13:36:33.389Z,1.10
2022-08-05T13:40:15.808Z,1.20
2022-08-05T13:42:47.108Z,1.40
2022-08-05T13:45:55.795Z,1.60
2022-08-05T13:49:04.702Z,1.10
2022-08-05T13:52:13.261Z,1.30
2022-08-05T13:55:41.125Z,1.50
2022-08-05T13:58:30.753Z,0.90
2022-08-05T14:01:36.405Z,1.20
2022-08-05T14:04:34.393Z,1.20
2022-08-05T14:08:00.276Z,0.90
2022-08-05T14:10:48.485Z,1.10
2022-08-05T14:13:57.801Z,1.30
2022-08-05T14:16:09.326Z,0.80
2022-08-05T14:18:30.467Z,1.30
2022-08-05T14:22:08.878Z,1.00
2022-08-05T14:24:45.261Z,0.80
2022-08-05T14:27:55.347Z,1.00
2022-08-05T14:31:03.393Z,0.80
2022-08-05T14:34:11.916Z,0.70
2022-08-05T14:37:08.781Z,0.90
2022-08-05T14:40:11.085Z,0.60
2022-08-05T14:43:11.533Z,0.90
2022-08-05T14:46:22.257Z,0.70
2022-08-05T14:49:56.424Z,0.50
2022-08-05T14:52:52.309Z,0.50
2022-08-05T14:55:42.471Z,0.40
2022-08-05T14:58:53.237Z,0.50
2022-08-05T15:02:01.329Z,0.90
2022-08-05T15:05:13.608Z,0.70
2022-08-05T15:08:37.994Z,0.70
2022-08-05T15:11:16.886Z,0.60
2022-08-05T15:14:34.750Z,0.50
2022-08-05T15:17:46.920Z,0.70
2022-08-05T15:20:36.187Z,0.70
2022-08-05T15:23:44.332Z,0.90
2022-08-05T15:26:53.366Z,0.70
2022-08-05T15:29:53.049Z,0.50
2022-08-05T15:32:54.621Z,0.80
2022-08-05T15:36:04.017Z,0.60
2022-08-05T15:40:41.396Z,0.60
2022-08-05T15:42:56.682Z,0.70
2022-08-05T15:45:38.197Z,0.60
2022-08-05T15:48:29.706Z,0.70
2022-08-05T15:52:10.083Z,5.50
2022-08-05T15:54:43.592Z,2.50
2022-08-05T15:57:52.140Z,2.10
2022-08-05T16:01:17.862Z,3.40
2022-08-05T16:04:06.184Z,0.50
2022-08-05T16:07:10.709Z,0.60
2022-08-05T16:10:11.504Z,0.60
2022-08-05T16:13:09.308Z,0.70
2022-08-05T16:16:21.266Z,0.90
2022-08-05T16:20:03.241Z,0.80
2022-08-05T16:22:34.290Z,1.00
2022-08-05T16:25:33.845Z,0.80
2022-08-05T16:28:42.876Z,0.70
2022-08-05T16:31:57.200Z,0.70
2022-08-05T16:34:56.604Z,0.80
2022-08-05T16:38:17.004Z,0.50
2022-08-05T16:42:11.975Z,0.80
2022-08-05T16:44:16.428Z,0.70
2022-08-05T16:47:28.908Z,0.90
2022-08-05T16:50:30.291Z,0.60
2022-08-05T16:54:02.907Z,0.70
2022-08-05T16:56:44.261Z,0.70
2022-08-05T17:00:03.018Z,0.90
2022-08-05T17:02:57.840Z,0.80
2022-08-05T17:06:05.512Z,0.90
2022-08-05T17:09:13.940Z,1.00
2022-08-05T17:12:50.540Z,1.00
2022-08-05T17:15:29.473Z,0.80
2022-08-05T17:18:33.770Z,0.90
2022-08-05T17:21:42.902Z,0.90
2022-08-05T17:24:57.957Z,1.10
2022-08-05T17:27:53.899Z,1.00
2022-08-05T17:31:08.300Z,1.00
2022-08-05T17:34:05.788Z,1.20
2022-08-05T17:37:40.340Z,0.90
2022-08-05T17:40:22.264Z,1.30
2022-08-05T17:43:50.378Z,1.20
2022-08-05T17:46:36.630Z,1.00
2022-08-05T17:49:59.738Z,0.90
2022-08-05T17:52:53.391Z,1.10
2022-08-05T17:55:52.704Z,1.10
2022-08-05T17:59:00.816Z,1.30
2022-08-05T18:02:11.113Z,1.40
2022-08-05T18:05:19.580Z,1.50
2022-08-05T18:08:27.369Z,1.70
2022-08-05T18:11:36.002Z,1.30
2022-08-05T18:14:44.715Z,1.20
2022-08-05T18:17:59.194Z,1.40
2022-08-05T18:20:58.794Z,1.50
2022-08-05T18:23:58.800Z,1.40
2022-08-05T18:27:06.815Z,2.10
2022-08-05T18:30:10.957Z,1.40
2022-08-05T18:33:22.642Z,1.60
2022-08-05T18:36:31.692Z,1.40
2022-08-05T18:40:31.024Z,1.40
2022-08-05T18:42:45.369Z,1.40
2022-08-05T18:45:54.283Z,1.30
2022-08-05T18:49:04.191Z,1.10
2022-08-05T18:52:14.983Z,1.20
2022-08-05T18:55:23.015Z,1.40
2022-08-05T18:58:31.245Z,1.30
2022-08-05T19:01:48.245Z,1.40
2022-08-05T19:05:01.710Z,1.00
2022-08-05T19:07:46.505Z,1.20
2022-08-05T19:10:55.251Z,1.00
2022-08-05T19:14:15.258Z,1.40
2022-08-05T19:17:09.660Z,1.30
2022-08-05T19:20:09.695Z,1.30
2022-08-05T19:23:22.564Z,1.20
2022-08-05T19:26:23.776Z,0.70
2022-08-05T19:29:36.057Z,0.70
2022-08-05T19:32:34.207Z,0.60
2022-08-05T19:35:56.653Z,0.50
2022-08-05T19:38:48.123Z,0.10
2022-08-05T19:42:05.784Z,0.30
2022-08-05T19:45:01.761Z,0.20
2022-08-05T19:48:14.697Z,0.20
2022-08-05T19:51:11.894Z,0.10
2022-08-05T19:54:26.667Z,0.20
2022-08-05T19:57:47.551Z,0.40
2022-08-05T20:00:28.435Z,0.30
2022-08-05T20:03:40.487Z,0.20
2022-08-05T20:06:46.486Z,0.30
2022-08-05T20:09:54.528Z,0.20
2022-08-05T20:12:49.997Z,0.40
2022-08-05T20:15:58.078Z,0.30
2022-08-05T20:19:07.954Z,0.30
2022-08-05T20:22:15.759Z,0.30
2022-08-05T20:25:24.795Z,0.20
2022-08-05T20:28:30.165Z,0.20
2022-08-05T20:31:52.240Z,0.30
2022-08-05T20:34:42.668Z,0.10
2022-08-05T20:38:07.958Z,0.40
2022-08-05T20:40:56.470Z,0.10
2022-08-05T20:44:19.328Z,0.20
2022-08-05T20:47:09.431Z,0.20
2022-08-05T20:50:18.639Z,0.20
2022-08-05T20:53:36.792Z,0.20
2022-08-05T20:56:40.200Z,0.20
2022-08-05T21:00:10.439Z,0.40
2022-08-05T21:02:51.584Z,0.20
2022-08-05T21:05:54.576Z,0.20
2022-08-05T21:08:53.659Z,0.30
2022-08-05T21:12:10.395Z,0.20
2022-08-05T21:15:11.303Z,0.20
2022-08-05T21:18:20.976Z,0.20
2022-08-05T21:21:24.389Z,0.30
2022-08-05T21:24:25.052Z,0.30
2022-08-05T21:27:38.628Z,0.20
2022-08-05T21:30:43.308Z,0.30
2022-08-05T21:33:53.227Z,0.30
2022-08-05T21:37:04.336Z,0.30
2022-08-05T21:40:16.610Z,0.20
2022-08-05T21:43:24.059Z,0.30
2022-08-05T21:46:22.886Z,0.30
2022-08-05T21:49:59.450Z,0.30
2022-08-05T21:52:31.999Z,0.30
2022-08-05T21:56:04.269Z,0.30
2022-08-05T21:58:42.238Z,0.30
2022-08-05T22:01:45.734Z,0.40
2022-08-05T22:04:53.814Z,0.30
2022-08-05T22:08:02.425Z,0.60
2022-08-05T22:11:10.815Z,0.50
2022-08-05T22:14:33.067Z,0.40
2022-08-05T22:17:17.600Z,0.40
2022-08-05T22:20:25.442Z,0.40
2022-08-05T22:24:02.979Z,0.40
2022-08-05T22:26:38.720Z,0.30
2022-08-05T22:29:46.821Z,0.40
2022-08-05T22:32:55.038Z,0.50
2022-08-05T22:36:03.301Z,0.30
2022-08-05T22:39:13.485Z,0.50
2022-08-05T22:42:26.213Z,0.30
2022-08-05T22:45:24.776Z,0.50
2022-08-05T22:48:32.919Z,0.80
2022-08-05T22:52:07.670Z,0.70
2022-08-05T22:54:48.946Z,0.40
2022-08-05T22:57:46.697Z,0.40
2022-08-05T23:00:57.046Z,0.40
2022-08-05T23:04:05.566Z,0.50
2022-08-05T23:07:15.271Z,0.50
2022-08-05T23:10:23.586Z,0.30
2022-08-05T23:13:32.258Z,0.50
2022-08-05T23:16:44.021Z,0.70
2022-08-05T23:19:56.224Z,0.50
2022-08-05T23:22:55.792Z,0.50
2022-08-05T23:26:03.954Z,0.50
2022-08-05T23:29:11.785Z,0.60
2022-08-05T23:32:13.106Z,0.60
2022-08-05T23:35:21.977Z,0.50
2022-08-05T23:38:29.899Z,0.50
2022-08-05T23:41:41.122Z,0.60
2022-08-05T23:44:43.227Z,0.50
2022-08-05T23:47:53.620Z,0.50
2022-08-05T23:50:55.659Z,0.50
2022-08-05T23:54:03.692Z,0.60
2022-08-05T23:57:11.707Z,0.50
